Time;durP1;ratioP1;P1;durP2;ratioP2;P2;SDS_P1;SDS_P2;PMS_P1;PMS_P2;Temp;Humidity;BMP_temperature;BMP_pressure;BME280_temperature;BME280_humidity;BME280_pressure;Samples;Min_cycle;Max_cycle;Signal;HPM_P1;HPM_P2
2024/03/10 00:01:18;;;;;;;53.20;35.40;;;4.80;99.90;;;-141.84;97.58;92639.44;5020308;28;20233;-68
2024/03/10 00:03:46;;;;;;;51.57;35.30;;;4.70;99.90;;;-141.84;96.22;88931.63;5017091;28;20217;-69
2024/03/10 00:06:15;;;;;;;53.43;36.50;;;4.80;99.90;;;-141.84;97.21;90520.28;5017015;28;20216;-71
2024/03/10 00:08:44;;;;;;;54.50;36.47;;;4.70;99.90;;;-141.84;98.23;93434.41;5019418;28;20716;-69
2024/03/10 00:11:12;;;;;;;53.33;34.97;;;4.70;99.90;;;-141.84;99.02;95555.09;5030050;28;20320;-71
2024/03/10 00:13:40;;;;;;;53.00;35.17;;;4.70;99.90;;;-141.84;99.19;96881.06;5027202;28;20240;-68
2024/03/10 00:16:10;;;;;;;54.73;36.40;;;4.70;99.90;;;-141.84;98.72;94759.69;5014778;28;20559;-70
2024/03/10 00:18:39;;;;;;;53.43;36.07;;;4.70;99.90;;;-141.84;98.42;93699.44;5015990;28;20238;-72
2024/03/10 00:21:07;;;;;;;51.47;33.83;;;4.70;99.90;;;-141.84;99.39;96085.44;5022182;28;20268;-70
2024/03/10 00:23:37;;;;;;;52.37;36.47;;;4.60;99.90;;;-141.84;99.82;97942.19;5019540;28;20621;-71
2024/03/10 00:26:06;;;;;;;50.67;34.80;;;4.60;99.90;;;-141.84;100.00;98207.50;5023180;28;20226;-69
2024/03/10 00:28:35;;;;;;;52.17;35.30;;;4.60;99.90;;;-141.84;99.80;97942.19;5023957;28;20272;-71
2024/03/10 00:31:03;;;;;;;50.93;34.77;;;4.60;99.90;;;-141.84;98.34;94229.53;5021475;28;20235;-70
2024/03/10 00:33:33;;;;;;;52.53;35.07;;;4.60;99.90;;;-141.84;98.77;95024.81;5021446;28;20226;-70
2024/03/10 00:36:02;;;;;;;50.77;34.23;;;4.60;99.90;;;-141.84;100.00;97146.31;5018412;28;20201;-70
2024/03/10 00:38:30;;;;;;;56.00;36.87;;;4.50;99.90;;;-141.84;99.08;96615.84;5015113;28;20318;-70
2024/03/10 00:40:58;;;;;;;47.83;35.00;;;4.60;99.90;;;-141.84;98.27;93699.44;5015391;28;20292;-71
2024/03/10 00:43:28;;;;;;;51.93;34.33;;;4.60;99.90;;;-141.84;99.55;96350.63;5018054;28;20221;-71
2024/03/10 00:45:56;;;;;;;50.03;35.30;;;4.50;99.90;;;-141.84;100.00;101923.81;5017708;28;20288;-71
2024/03/10 00:48:25;;;;;;;48.80;34.70;;;4.50;99.90;;;-141.84;100.00;103517.56;5017876;28;20202;-69
2024/03/10 00:50:54;;;;;;;53.90;36.67;;;4.50;99.90;;;-141.84;100.00;104846.16;5016289;28;20316;-70
2024/03/10 00:53:23;;;;;;;55.77;36.70;;;4.40;99.90;;;-141.84;100.00;102455.00;5028068;28;20254;-70
2024/03/10 00:55:51;;;;;;;53.03;34.77;;;4.50;99.90;;;-141.84;100.00;103517.56;5017181;28;20791;-71
2024/03/10 00:58:20;;;;;;;53.80;36.73;;;4.50;99.90;;;-141.84;100.00;102189.38;5016774;28;20646;-70
2024/03/10 01:00:48;;;;;;;54.47;36.53;;;4.50;99.90;;;-141.84;100.00;101392.69;5018540;28;21513;-70
2024/03/10 01:03:17;;;;;;;52.67;36.17;;;4.50;99.90;;;-141.84;100.00;101392.69;5022148;28;20301;-71
2024/03/10 01:05:46;;;;;;;54.80;36.20;;;4.40;99.90;;;-141.84;100.00;99799.78;5014695;28;20254;-71
2024/03/10 01:08:15;;;;;;;55.20;36.90;;;4.50;99.90;;;-141.84;100.00;101658.25;5022723;28;20236;-70
2024/03/10 01:10:44;;;;;;;53.80;36.10;;;4.50;99.90;;;-141.84;100.00;101392.69;5018517;28;20241;-70
2024/03/10 01:13:15;;;;;;;53.77;35.93;;;4.50;99.90;;;-141.84;100.00;102455.00;5015242;28;20651;-69
2024/03/10 01:15:43;;;;;;;50.17;34.63;;;4.50;99.90;;;-141.84;100.00;99799.78;5014724;28;20253;-71
2024/03/10 01:18:12;;;;;;;52.13;35.80;;;4.50;99.90;;;-141.84;100.00;101127.16;5021558;28;20849;-71
2024/03/10 01:20:40;;;;;;;51.13;34.73;;;4.50;99.90;;;-141.84;100.00;103517.56;5019567;28;20253;-69
2024/03/10 01:23:10;;;;;;;52.33;35.23;;;4.40;99.90;;;-141.84;100.00;101923.81;5022177;28;20228;-69
2024/03/10 01:25:41;;;;;;;53.33;35.13;;;4.40;99.90;;;-141.84;100.00;101392.69;5021144;28;20238;-70
2024/03/10 01:28:10;;;;;;;50.50;34.37;;;4.40;99.90;;;-141.84;99.71;98738.19;5023650;28;20238;-71
2024/03/10 01:30:38;;;;;;;48.97;34.57;;;4.50;99.90;;;-141.84;99.37;96350.63;5026717;28;20259;-69
2024/03/10 01:33:08;;;;;;;49.53;34.67;;;4.50;99.90;;;-141.84;100.00;101127.16;5025935;28;20810;-70
2024/03/10 01:35:36;;;;;;;50.00;34.77;;;4.40;99.90;;;-141.84;100.00;103783.25;5028782;28;20305;-70
2024/03/10 01:38:05;;;;;;;50.27;33.77;;;4.40;99.90;;;-141.84;100.00;105909.34;5024570;28;20233;-69
2024/03/10 01:40:33;;;;;;;55.13;36.57;;;4.30;99.90;;;-141.84;100.00;106441.06;5023485;28;20279;-70
2024/03/10 01:43:03;;;;;;;49.87;33.37;;;4.30;99.90;;;-141.84;100.00;108036.56;5025800;28;20631;-71
2024/03/10 01:45:32;;;;;;;46.93;32.60;;;4.20;99.90;;;-141.84;100.00;105909.34;5023481;28;20233;-71
2024/03/10 01:48:02;;;;;;;48.87;34.03;;;4.30;99.90;;;-141.84;100.00;102455.00;5021387;28;20310;-70
2024/03/10 01:50:31;;;;;;;49.57;34.27;;;4.30;99.90;;;-141.84;100.00;104314.66;5020556;28;20226;-70
2024/03/10 01:53:00;;;;;;;48.07;33.93;;;4.30;99.90;;;-141.84;100.00;105909.34;5030224;28;20232;-70
2024/03/10 01:55:29;;;;;;;51.90;34.07;;;4.20;99.90;;;-141.84;100.00;108302.56;5026252;28;20879;-69
2024/03/10 01:57:58;;;;;;;49.20;34.83;;;;;;;-141.84;100.00;109632.72;5027920;28;20232;-70
2024/03/10 02:00:28;;;;;;;49.23;34.27;;;4.10;99.90;;;-141.84;100.00;109100.59;5030548;28;20197;-71
2024/03/10 02:02:58;;;;;;;47.97;33.40;;;4.20;99.90;;;-141.84;100.00;107770.63;5019339;28;20208;-72
2024/03/10 02:05:27;;;;;;;44.93;32.13;;;4.20;99.90;;;-141.84;100.00;107504.66;5022442;28;20269;-71
2024/03/10 02:07:56;;;;;;;46.20;31.83;;;4.20;99.90;;;-141.84;100.00;108834.56;5019706;28;20231;-70
2024/03/10 02:10:25;;;;;;;46.13;32.70;;;4.20;99.90;;;-141.84;100.00;109100.59;5019538;28;20248;-71
2024/03/10 02:12:55;;;;;;;48.13;33.20;;;4.20;99.90;;;-141.84;100.00;108036.56;5022017;28;20223;-70
2024/03/10 02:15:23;;;;;;;44.60;31.47;;;4.20;99.90;;;-141.84;100.00;107504.66;5022613;28;20218;-70
2024/03/10 02:17:52;;;;;;;47.60;32.77;;;4.20;99.90;;;-141.84;100.00;107504.66;5023568;28;20347;-69
2024/03/10 02:20:21;;;;;;;43.37;31.33;;;4.20;99.90;;;-141.84;100.00;108568.56;5021159;28;20226;-70
2024/03/10 02:22:50;;;;;;;41.47;31.17;;;4.20;99.90;;;-141.84;100.00;107504.66;5027955;28;20260;-70
2024/03/10 02:25:24;;;;;;;45.20;31.90;;;4.20;99.90;;;-141.84;100.00;106175.19;5039978;28;20269;-70
2024/03/10 02:27:55;;;;;;;44.13;30.80;;;4.30;99.90;;;-141.84;100.00;104580.41;5049258;28;20242;-70
2024/03/10 02:30:31;;;;;;;42.97;32.07;;;4.20;99.90;;;-141.84;100.00;105643.53;5017459;28;20273;-74
2024/03/10 02:49:37;;;;;;;42.27;30.63;;;4.10;99.90;;;-141.84;100.00;109366.66;5018442;28;20226;-70
2024/03/10 02:52:06;;;;;;;41.07;28.87;;;4.10;99.90;;;-141.84;100.00;107238.72;5022307;28;20656;-71
2024/03/10 02:54:35;;;;;;;42.83;29.60;;;4.20;99.90;;;-141.84;100.00;106441.06;5017079;28;20740;-69
2024/03/10 02:57:04;;;;;;;41.70;30.20;;;;;;;-141.84;100.00;107238.72;5018713;28;20707;-69
2024/03/10 02:59:35;;;;;;;41.17;30.40;;;;;;;-141.84;100.00;108036.56;5021622;28;20250;-70
2024/03/10 03:02:04;;;;;;;41.27;29.90;;;4.10;99.90;;;-141.84;100.00;109366.66;5016743;28;20271;-70
2024/03/10 03:04:33;;;;;;;40.53;28.13;;;;;;;-141.84;100.00;107504.66;5023289;28;20217;-71
2024/03/10 03:07:02;;;;;;;40.93;28.33;;;;;;;-141.84;100.00;106175.19;5019283;28;20317;-70
2024/03/10 03:09:32;;;;;;;44.27;30.10;;;;;;;-141.84;100.00;107504.66;5042045;28;20839;-69
2024/03/10 03:12:03;;;;;;;41.17;30.90;;;;;;;-141.84;100.00;106972.81;5051130;28;20238;-71
2024/03/10 03:14:40;;;;;;;39.07;29.27;;;;;;;-141.84;100.00;107770.63;5055894;28;20305;-70
2024/03/10 03:17:10;;;;;;;40.60;29.63;;;;;;;-141.84;100.00;106706.94;5031872;28;20266;-69
2024/03/10 03:19:44;;;;;;;42.60;30.10;;;;;;;-141.84;100.00;101127.16;5017083;28;20238;-69
2024/03/10 03:22:15;;;;;;;40.37;28.53;;;;;;;-141.84;100.00;98207.50;5018305;28;20221;-70
2024/03/10 03:24:44;;;;;;;37.80;28.33;;;;;;;-141.84;99.79;97411.59;5018815;28;20201;-70
2024/03/10 03:27:14;;;;;;;38.47;28.07;;;;;;;-141.84;99.99;98472.84;5018442;28;20327;-70
2024/03/10 03:29:45;;;;;;;36.57;27.30;;;;;;;-141.84;97.89;94229.53;5017398;28;20252;-70
2024/03/10 03:32:57;;;;;;;38.00;27.80;;;;;;;-141.84;97.07;89990.66;5023998;28;20225;-71
2024/03/10 03:35:27;;;;;;;36.63;27.33;;;;;;;-141.84;97.67;92374.47;5022216;28;20226;-69
2024/03/10 03:38:05;;;;;;;34.53;25.63;;;;;;;-141.84;96.03;88666.94;5024416;28;20225;-71
2024/03/10 03:40:35;;;;;;;38.97;27.90;;;;;;;-141.84;95.89;86814.44;5016995;28;20581;-70
2024/03/10 03:43:04;;;;;;;37.97;27.13;;;;;;;-141.84;98.68;93434.41;5022432;28;20257;-69
2024/03/10 03:45:35;;;;;;;41.70;27.73;;;;;;;-141.84;99.44;96350.63;5023281;28;20258;-69
2024/03/10 03:48:05;;;;;;;37.57;27.43;;;;;;;-141.84;100.00;98738.19;5022929;28;20412;-71
2024/03/10 03:50:34;;;;;;;37.37;27.47;;;;;;;-141.84;99.67;97411.59;5021929;28;20230;-70
2024/03/10 03:53:04;;;;;;;36.50;27.33;;;;;;;-141.84;100.00;99003.56;5025944;28;20237;-71
2024/03/10 03:55:34;;;;;;;37.30;27.00;;;;;;;-141.84;100.00;99268.97;5027353;28;20248;-71
2024/03/10 03:58:03;;;;;;;34.33;26.67;;;;;;;-141.84;100.00;100330.69;5031986;28;20304;-70
2024/03/10 04:00:34;;;;;;;39.73;27.87;;;;;;;-141.84;100.00;101923.81;5030059;28;20293;-68
2024/03/10 04:03:05;;;;;;;38.80;27.33;;;;;;;-141.84;100.00;102720.59;5023837;28;20295;-71
2024/03/10 04:05:35;;;;;;;35.93;26.67;;;;;;;-141.84;100.00;105377.72;5012701;28;20291;-71
2024/03/10 04:08:05;;;;;;;38.30;27.60;;;;;;;-141.84;100.00;105643.53;5023611;28;20228;-70
2024/03/10 04:10:35;;;;;;;34.30;26.23;;;;;;;-141.84;100.00;107770.63;5026451;28;20242;-70
2024/03/10 04:13:05;;;;;;;37.63;27.10;;;4.40;99.90;;;-141.84;100.00;105643.53;5030635;28;20247;-71
2024/03/10 04:15:35;;;;;;;35.90;26.47;;;4.50;99.90;;;-141.84;100.00;100596.16;5048012;28;20521;-70
2024/03/10 04:18:06;;;;;;;37.67;26.63;;;;;;;-141.84;100.00;99534.38;5023820;28;20321;-70
2024/03/10 04:20:36;;;;;;;35.17;26.63;;;;;;;-141.84;100.00;101392.69;5029204;28;20228;-71
2024/03/10 04:23:06;;;;;;;36.03;26.37;;;;;;;-141.84;100.00;100861.66;5020328;28;20977;-70
2024/03/10 04:25:35;;;;;;;36.47;26.37;;;;;;;-141.84;100.00;101658.25;5021579;28;20316;-70
2024/03/10 04:28:05;;;;;;;36.43;26.27;;;;;;;-141.84;100.00;99799.78;5028460;28;20768;-70
2024/03/10 04:30:36;;;;;;;33.83;26.17;;;;;;;-141.84;100.00;98207.50;5028241;28;20296;-69
2024/03/10 04:33:06;;;;;;;34.70;26.73;;;;;;;-141.84;100.00;100065.22;5030038;28;20252;-69
2024/03/10 04:35:35;;;;;;;37.27;27.73;;;;;;;-141.84;100.00;102986.25;5027144;28;20235;-71
2024/03/10 04:38:05;;;;;;;37.37;27.83;;;;;;;-141.84;100.00;104314.66;5023360;28;20236;-70
2024/03/10 04:40:35;;;;;;;34.30;25.60;;;;;;;-141.84;100.00;105111.94;5026844;28;20239;-71
2024/03/10 04:43:03;;;;;;;36.97;26.40;;;4.30;99.90;;;-141.84;100.00;103251.88;5023138;28;20395;-71
2024/03/10 04:45:32;;;;;;;36.67;26.57;;;;;;;-141.84;100.00;99268.97;5028779;28;20306;-69
2024/03/10 04:48:04;;;;;;;40.13;27.23;;;;;;;-141.84;100.00;102189.38;5029190;28;20222;-69
2024/03/10 04:50:33;;;;;;;36.53;27.30;;;;;;;-141.84;100.00;102189.38;5024006;28;20217;-70
2024/03/10 04:53:03;;;;;;;36.63;26.20;;;;;;;-141.84;100.00;102720.59;5027382;28;20229;-70
2024/03/10 04:55:32;;;;;;;34.30;26.03;;;;;;;-141.84;100.00;105377.72;5023257;28;20236;-68
2024/03/10 04:58:01;;;;;;;39.67;26.50;;;;;;;-141.84;100.00;108302.56;5021093;28;20414;-70
2024/03/10 05:00:30;;;;;;;37.57;27.00;;;;;;;-141.84;100.00;110697.16;5012985;28;20790;-70
2024/03/10 05:03:05;;;;;;;36.37;26.17;;;;;;;-141.84;100.00;110697.16;5020504;28;20210;-71
2024/03/10 05:05:35;;;;;;;36.03;26.63;;;;;;;-141.84;100.00;109632.72;5025318;28;20233;-71
2024/03/10 05:08:05;;;;;;;35.20;25.33;;;;;;;-141.84;100.00;108834.56;5025111;28;20233;-70
2024/03/10 05:10:34;;;;;;;35.43;25.77;;;;;;;-141.84;100.00;110431.03;5028129;28;20279;-70
2024/03/10 05:13:04;;;;;;;34.50;26.20;;;;;;;-141.84;100.00;110963.31;5029652;28;20253;-70
2024/03/10 05:15:34;;;;;;;33.43;24.67;;;;;;;-141.84;100.00;110963.31;5029910;28;20205;-70
2024/03/10 05:18:05;;;;;;;35.20;25.73;;;;;;;-141.84;100.00;108834.56;5023862;28;20292;-71
2024/03/10 05:20:35;;;;;;;36.30;26.27;;;;;;;-141.84;100.00;109898.81;5022390;28;20287;-72
2024/03/10 05:23:11;;;;;;;35.70;26.30;;;;;;;-141.84;100.00;110164.91;5024585;28;20229;-72
2024/03/10 05:25:40;;;;;;;36.37;27.40;;;;;;;-141.84;100.00;111229.50;5015707;28;20839;-71
2024/03/10 05:28:10;;;;;;;39.10;26.93;;;;;;;-141.84;100.00;109100.59;5021942;28;20321;-70
2024/03/10 05:30:42;;;;;;;37.00;26.60;;;;;;;-141.84;100.00;105643.53;5028822;28;20228;-69
2024/03/10 05:33:13;;;;;;;36.30;25.83;;;;;;;-141.84;100.00;108302.56;5025726;28;20665;-70
2024/03/10 05:35:43;;;;;;;37.90;26.27;;;;;;;-141.84;100.00;108302.56;5015250;28;20222;-71
2024/03/10 05:38:12;;;;;;;38.27;26.83;;;;;;;-141.84;100.00;108834.56;5031220;28;20263;-70
2024/03/10 05:40:42;;;;;;;39.10;26.47;;;;;;;-141.84;100.00;108568.56;5032974;28;20609;-70
2024/03/10 05:43:12;;;;;;;40.03;27.30;;;;;;;-141.84;100.00;109898.81;5026178;28;20312;-71
2024/03/10 05:45:41;;;;;;;36.70;26.23;;;;;;;-141.84;100.00;110431.03;5014794;28;20241;-70
2024/03/10 05:48:14;;;;;;;35.70;26.23;;;;;;;-141.84;100.00;109100.59;5027794;28;20236;-70
2024/03/10 05:50:44;;;;;;;39.57;26.73;;;;;;;-141.84;100.00;108302.56;5028381;28;20240;-72
2024/03/10 05:53:27;;;;;;;38.17;26.33;;;;;;;-141.84;100.00;109100.59;5036499;28;20231;-70
2024/03/10 05:55:57;;;;;;;35.30;25.27;;;;;;;-141.84;100.00;110697.16;5035925;28;20221;-70
2024/03/10 05:58:26;;;;;;;37.13;26.23;;;;;;;-141.84;100.00;111495.69;5021837;28;20760;-70
2024/03/10 06:01:04;;;;;;;35.20;25.80;;;;;;;-141.84;100.00;110164.91;5024414;28;20718;-70
2024/03/10 06:03:51;;;;;;;37.57;26.47;;;;;;;-141.84;100.00;109366.66;5029378;28;20205;-70
2024/03/10 06:06:21;;;;;;;35.73;25.77;;;;;;;-141.84;100.00;105909.34;5023481;28;20270;-70
2024/03/10 06:09:34;;;;;;;35.13;25.90;;;;;;;-141.84;100.00;99003.56;5028366;28;20275;-70
2024/03/10 06:12:44;;;;;;;34.93;24.80;;;;;;;-141.84;99.68;96881.06;5025271;28;20229;-71
2024/03/10 06:15:16;;;;;;;36.20;26.17;;;;;;;-141.84;98.12;92904.41;5023353;28;20214;-69
2024/03/10 06:18:02;;;;;;;35.80;25.30;;;;;;;-141.84;99.09;94494.59;5020794;28;20225;-69
2024/03/10 06:26:05;;;;;;;35.97;25.60;;;;;;;-141.84;98.29;93169.38;5021430;28;20228;-70
2024/03/10 06:28:33;;;;;;;35.63;25.27;;;;;;;-141.84;97.12;91314.81;5029312;28;20291;-70
2024/03/10 06:31:02;;;;;;;35.10;25.57;;;;;;;-141.84;96.19;88137.56;5026260;28;20264;-70
2024/03/10 06:33:30;;;;;;;34.60;25.43;;;;;;;-141.84;95.08;84169.50;5029006;28;20245;-71
2024/03/10 06:36:00;;;;;;;34.20;24.93;;;;;;;-141.84;94.49;82583.34;5022230;28;20235;-69
2024/03/10 06:38:29;;;;;;;35.13;25.00;;;;;;;-141.84;92.96;77036.81;5017151;28;20224;-71
2024/03/10 06:40:57;;;;;;;33.70;24.90;;;;;;;-141.84;94.10;80469.50;5018978;28;20277;-70
2024/03/10 06:43:26;;;;;;;32.87;23.47;;;;;;;-141.84;94.79;82847.66;5025276;28;20245;-70
2024/03/10 06:45:55;;;;;;;34.23;25.40;;;;;;;-141.84;94.79;83376.34;5020800;28;20703;-70
2024/03/10 06:48:24;;;;;;;34.87;24.90;;;;;;;-141.84;94.65;82847.66;5028977;28;20285;-70
2024/03/10 06:50:53;;;;;;;33.20;24.53;;;;;;;-141.84;93.79;80469.50;5029643;28;20765;-70
2024/03/10 06:53:24;;;;;;;30.77;23.33;;;;;;;-141.84;90.96;71234.38;5030734;28;20291;-70
2024/03/10 06:55:55;;;;;;;30.30;22.70;;;;;;;-141.84;91.42;71497.94;5027375;28;20223;-70
2024/03/10 06:58:24;;;;;;;32.80;24.00;;;;;;;-141.84;90.46;67283.00;5028685;28;20651;-70
2024/03/10 07:00:53;;;;;;;31.50;22.43;;;;;;;-141.84;89.66;66493.19;5028735;28;20221;-71
2024/03/10 07:03:21;;;;;;;35.17;23.97;;;;;;;-141.84;88.18;57290.34;5019921;28;20203;-69
2024/03/10 07:05:50;;;;;;;31.37;23.70;;;;;;;-141.84;86.71;48894.97;5024103;28;20223;-70
2024/03/10 07:08:18;;;;;;;31.53;23.27;;;;;;;-141.84;84.87;37070.06;5027292;28;20303;-70
2024/03/10 07:10:48;;;;;;;31.90;23.60;;;;;;;-141.84;83.63;28841.84;5029508;28;20232;-70
2024/03/10 07:13:18;;;;;;;27.00;21.17;;;;;;;-141.84;82.28;22826.97;5034329;28;20241;-70
2024/03/10 07:15:47;;;;;;;29.37;22.37;;;;;;;-141.84;81.91;22176.16;5049817;28;20232;-70
2024/03/10 07:18:15;;;;;;;29.70;22.93;;;5.70;99.90;;;-141.84;81.09;20624.84;5040073;28;20677;-71
2024/03/10 07:20:44;;;;;;;29.10;22.47;;;5.80;99.90;;;-141.84;82.32;23392.44;5040306;28;20585;-70
2024/03/10 07:23:14;;;;;;;30.83;22.53;;;5.90;99.90;;;-141.84;80.60;20529.28;5034127;28;20237;-70
2024/03/10 07:25:42;;;;;;;29.10;21.67;;;6.00;99.90;;;-141.84;79.34;19131.03;5030138;28;20312;-71
2024/03/10 07:28:12;;;;;;;28.33;21.93;;;6.00;99.90;;;-141.84;78.56;18862.81;5022476;28;20262;-71
2024/03/10 07:30:40;;;;;;;28.60;22.00;;;6.20;99.90;;;-141.84;77.78;18610.88;5027489;28;20273;-70
2024/03/10 07:33:08;;;;;;;27.13;21.57;;;6.20;99.90;;;-141.84;76.45;18460.53;5016226;28;20273;-71
2024/03/10 07:35:37;;;;;;;25.90;21.20;;;6.30;99.90;;;-141.84;76.67;18478.81;5028468;28;20814;-70
2024/03/10 07:38:06;;;;;;;28.03;21.97;;;6.40;99.90;;;-141.84;74.47;18332.53;5024841;28;20259;-70
2024/03/10 07:40:34;;;;;;;26.50;21.20;;;6.60;99.90;;;-141.84;74.59;18326.44;5016169;28;20234;-70
2024/03/10 07:43:04;;;;;;;28.97;21.93;;;6.60;99.90;;;-141.84;73.34;18293.94;5027094;28;20234;-71
2024/03/10 07:45:35;;;;;;;26.37;19.90;;;6.70;99.90;;;-141.84;73.12;18314.25;5027241;28;20194;-69
2024/03/10 07:48:05;;;;;;;25.87;21.10;;;6.80;99.90;;;-141.84;73.56;18344.72;5024528;28;20252;-70
2024/03/10 07:50:35;;;;;;;25.60;20.77;;;6.80;99.90;;;-141.84;73.52;18344.72;5026449;28;20225;-70
2024/03/10 07:53:04;;;;;;;27.60;21.47;;;6.80;99.90;;;-141.84;72.84;18310.19;5021897;28;20705;-71
2024/03/10 07:55:32;;;;;;;27.00;21.27;;;6.90;99.90;;;-141.84;72.13;18350.81;5023198;28;20764;-69
2024/03/10 07:58:01;;;;;;;26.40;20.83;;;7.10;99.90;;;-141.84;71.40;18320.34;5022534;28;20227;-70
2024/03/10 08:00:29;;;;;;;26.23;20.47;;;7.10;99.90;;;-141.84;72.39;18342.69;5016671;28;20194;-69
2024/03/10 08:02:59;;;;;;;26.03;20.53;;;7.20;99.90;;;-141.84;72.06;18338.63;5023897;28;20242;-71
2024/03/10 08:05:29;;;;;;;28.30;21.77;;;7.20;99.90;;;-141.84;71.28;18328.47;5028235;28;20337;-71
2024/03/10 08:07:58;;;;;;;26.17;21.07;;;7.30;99.90;;;-141.84;71.34;18387.38;5015585;28;20268;-71
2024/03/10 08:10:28;;;;;;;24.80;20.60;;;7.30;99.90;;;-141.84;70.67;18344.72;5018152;28;20226;-71
2024/03/10 08:12:56;;;;;;;24.87;20.27;;;7.40;99.90;;;-141.84;70.41;18336.59;5020084;28;20226;-71
2024/03/10 08:15:26;;;;;;;25.90;21.17;;;7.50;99.90;;;-141.84;69.90;18346.75;5014030;28;20203;-70
2024/03/10 08:17:54;;;;;;;25.10;20.70;;;7.60;99.90;;;-141.84;69.47;18346.75;5016563;28;20223;-71
2024/03/10 08:20:24;;;;;;;24.73;20.43;;;7.60;99.90;;;-141.84;70.01;18346.75;5020511;28;20223;-70
2024/03/10 08:22:53;;;;;;;26.13;21.10;;;7.60;99.90;;;-141.84;70.13;18377.22;5022932;28;20774;-70
2024/03/10 08:25:22;;;;;;;25.77;19.87;;;7.60;99.90;;;-141.84;68.92;18348.78;5020716;28;20224;-70
2024/03/10 08:27:52;;;;;;;26.57;20.83;;;7.80;99.90;;;-141.84;69.31;18367.06;5016733;28;20222;-70
2024/03/10 08:30:20;;;;;;;25.33;21.27;;;7.90;99.90;;;-141.84;68.41;18354.88;5021988;28;20202;-71
2024/03/10 08:32:49;;;;;;;26.57;21.47;;;8.00;99.90;;;-141.84;68.69;18415.81;5020446;28;20783;-71
2024/03/10 08:35:20;;;;;;;28.13;21.80;;;8.10;99.90;;;-141.84;68.79;18381.28;5022170;28;20218;-71
2024/03/10 08:37:50;;;;;;;26.57;21.57;;;8.10;99.90;;;-141.84;68.23;18371.13;5023764;28;20724;-68
2024/03/10 08:40:19;;;;;;;26.70;21.70;;;8.30;99.90;;;-141.84;67.10;18413.78;5022501;28;20665;-70
2024/03/10 08:42:47;;;;;;;27.23;22.37;;;8.30;99.90;;;-141.84;66.70;18393.47;5032038;28;20276;-72
2024/03/10 08:45:16;;;;;;;27.93;22.77;;;8.50;99.90;;;-141.84;66.28;18419.88;5045042;28;20194;-69
2024/03/10 08:47:50;;;;;;;23.13;20.30;;;8.60;99.90;;;-141.84;66.40;18405.66;5047665;28;20231;-69
2024/03/10 08:50:19;;;;;;;24.03;20.50;;;8.60;99.90;;;-141.84;65.80;18425.97;5008037;28;20260;-69
2024/03/10 08:52:47;;;;;;;25.13;21.13;;;8.70;99.90;;;-141.84;66.32;18415.81;5037008;28;20226;-70
2024/03/10 08:55:18;;;;;;;23.30;20.43;;;8.80;99.90;;;-141.84;65.86;18442.25;5041364;28;20262;-70
2024/03/10 08:57:47;;;;;;;28.40;22.90;;;8.90;99.90;;;-141.84;64.57;18425.97;5029780;28;20194;-71
2024/03/10 09:00:17;;;;;;;27.97;22.30;;;9.00;99.90;;;-141.84;64.40;18454.44;5032882;28;20237;-70
2024/03/10 09:02:46;;;;;;;28.93;23.23;;;9.10;99.90;;;-141.84;63.61;18428.03;5015211;28;20225;-70
2024/03/10 09:05:15;;;;;;;26.27;22.27;;;9.20;99.90;;;-141.84;63.51;18460.53;5022194;28;20325;-71
2024/03/10 09:07:44;;;;;;;22.50;19.43;;;9.20;99.90;;;-141.84;62.99;18476.78;5018466;28;20237;-70
2024/03/10 09:10:12;;;;;;;24.60;20.20;;;9.40;99.90;;;-141.84;62.79;18493.03;5005338;28;20238;-70
2024/03/10 09:12:42;;;;;;;24.77;21.13;;;9.40;99.90;;;-141.84;62.09;18491.00;5026154;28;20238;-70
2024/03/10 09:15:12;;;;;;;26.73;23.27;;;9.50;99.90;;;-141.84;61.13;18480.84;5026459;28;20210;-69
2024/03/10 09:17:44;;;;;;;29.37;23.93;;;9.60;99.90;;;-141.84;61.31;18517.41;5027161;28;20300;-69
2024/03/10 09:20:14;;;;;;;29.50;23.90;;;9.70;99.90;;;-141.84;61.27;18505.22;5038211;28;20241;-59
2024/03/10 09:22:43;;;;;;;25.40;21.77;;;9.70;99.90;;;-141.84;60.25;18543.81;5045961;28;20225;-60
2024/03/10 09:25:20;;;;;;;25.33;21.40;;;9.80;99.90;;;-141.84;60.72;18539.75;5032238;28;20222;-60
2024/03/10 09:27:53;;;;;;;25.87;22.13;;;9.80;99.90;;;-141.84;60.36;18527.56;5017142;28;20242;-60
2024/03/10 09:30:23;;;;;;;25.17;19.97;;;9.90;99.90;;;-141.84;61.03;18505.22;5029260;28;20295;-61
2024/03/10 09:32:54;;;;;;;23.90;20.00;;;9.90;99.90;;;-141.84;60.14;18556.00;5024623;28;20638;-59
2024/03/10 09:35:25;;;;;;;21.13;18.87;;;10.00;99.90;;;-141.84;60.60;18529.59;5018944;28;20226;-58
2024/03/10 09:37:54;;;;;;;23.90;20.63;;;10.00;99.90;;;-141.84;60.18;18578.38;5025700;28;20280;-60
2024/03/10 09:40:29;;;;;;;24.97;19.90;;;10.10;99.90;;;-141.84;60.13;18570.22;5020558;28;20563;-60
2024/03/10 09:43:04;;;;;;;25.20;21.30;;;10.00;99.90;;;-141.84;59.62;18558.03;4998972;28;20726;-59
2024/03/10 09:45:41;;;;;;;21.77;19.37;;;10.10;99.90;;;-141.84;60.09;18547.88;5016925;28;20650;-59
2024/03/10 09:48:11;;;;;;;21.87;19.47;;;10.00;99.90;;;-141.84;60.47;18551.94;5017960;28;20195;-59
2024/03/10 09:50:45;;;;;;;23.10;20.03;;;10.00;99.90;;;-141.84;60.45;18562.09;5018438;28;20746;-59
2024/03/10 09:53:18;;;;;;;22.37;19.40;;;10.10;99.90;;;-141.84;59.47;18582.44;5022000;28;20229;-58
2024/03/10 09:55:48;;;;;;;22.63;19.50;;;10.20;99.90;;;-141.84;59.41;18564.13;5018843;28;20210;-59
2024/03/10 09:58:26;;;;;;;23.27;19.97;;;10.20;99.90;;;-141.84;59.38;18616.97;5019592;28;20299;-58
2024/03/10 10:01:13;;;;;;;24.87;20.23;;;10.30;99.90;;;-141.84;58.95;18653.53;5026200;28;20228;-60
2024/03/10 10:03:49;;;;;;;25.13;19.67;;;10.40;99.90;;;-141.84;58.42;18580.41;5019091;28;20194;-60
2024/03/10 10:06:20;;;;;;;23.73;19.53;;;10.40;99.90;;;-141.84;58.05;18612.91;5020821;28;20206;-59
2024/03/10 10:08:53;;;;;;;22.33;18.47;;;10.50;99.90;;;-141.84;58.04;18594.63;5019175;28;20218;-60
2024/03/10 10:11:24;;;;;;;22.80;18.80;;;10.60;99.90;;;-141.84;57.36;18612.91;5021152;28;20602;-60
2024/03/10 10:14:10;;;;;;;22.37;18.93;;;10.70;99.90;;;-141.84;56.77;18641.34;5025099;28;20237;-60
2024/03/10 10:16:39;;;;;;;22.47;18.20;;;10.80;99.90;;;-141.84;56.88;18621.03;5023212;28;20257;-60
2024/03/10 10:19:19;;;;;;;19.80;17.57;;;10.90;99.90;;;-141.84;56.24;18663.69;5020085;28;20737;-60
2024/03/10 10:21:47;;;;;;;21.77;17.80;;;11.00;99.90;;;-141.84;55.69;18665.72;5021302;28;20206;-59
2024/03/10 10:24:16;;;;;;;21.67;18.27;;;11.10;99.90;;;-141.84;55.03;18688.06;5023955;28;20226;-60
2024/03/10 10:26:57;;;;;;;20.80;17.90;;;11.20;99.90;;;-141.84;55.76;18671.81;5029120;28;20257;-59
2024/03/10 10:29:27;;;;;;;19.77;17.63;;;11.20;99.90;;;-141.84;55.65;18639.31;5020026;28;20245;-59
2024/03/10 10:31:58;;;;;;;19.70;17.50;;;11.20;99.90;;;-141.84;55.22;18708.41;5019521;28;20313;-59
2024/03/10 10:34:26;;;;;;;19.40;17.13;;;11.30;99.90;;;-141.84;54.80;18696.19;5018921;28;20226;-61
2024/03/10 10:36:56;;;;;;;20.07;16.80;;;11.40;99.90;;;-141.84;54.81;18690.09;5019121;28;20262;-61
2024/03/10 10:39:29;;;;;;;19.57;17.43;;;11.40;99.90;;;-141.84;55.18;18708.41;5028075;28;20222;-60
2024/03/10 10:41:58;;;;;;;19.37;17.23;;;11.30;99.90;;;-141.84;55.12;18686.03;5030803;28;20353;-60
2024/03/10 10:44:31;;;;;;;20.73;17.27;;;11.30;99.90;;;-141.84;55.17;18694.16;5022274;28;20273;-60
2024/03/10 10:47:01;;;;;;;20.27;17.97;;;11.40;99.90;;;-141.84;54.83;18700.25;5028271;28;20226;-60
2024/03/10 10:49:35;;;;;;;20.00;16.53;;;11.40;99.90;;;-141.84;55.28;18734.81;5026725;28;20218;-60
2024/03/10 10:52:05;;;;;;;19.67;17.00;;;11.40;99.90;;;-141.84;55.02;18704.31;5018309;28;20611;-60